createdAt,value
2022-09-07T00:01:25.775Z,52.74
2022-09-07T00:04:28.096Z,52.77
2022-09-07T00:07:30.673Z,52.68
2022-09-07T00:10:32.814Z,52.57
2022-09-07T00:13:36.947Z,52.64
2022-09-07T00:16:39.067Z,52.65
2022-09-07T00:19:41.208Z,52.68
2022-09-07T00:22:43.296Z,52.78
2022-09-07T00:25:45.375Z,52.65
2022-09-07T00:28:48.254Z,52.66
2022-09-07T00:31:50.371Z,52.63
2022-09-07T00:34:52.593Z,52.59
2022-09-07T00:37:54.672Z,52.65
2022-09-07T00:40:56.855Z,52.75
2022-09-07T00:44:20.406Z,52.75
2022-09-07T00:47:34.161Z,52.92
2022-09-07T00:50:44.047Z,53.22
2022-09-07T00:53:59.972Z,53.40
2022-09-07T00:57:02.273Z,53.56
2022-09-07T01:00:05.825Z,53.64
2022-09-07T01:03:09.763Z,53.61
2022-09-07T01:06:21.946Z,53.56
2022-09-07T01:09:27.026Z,53.58
2022-09-07T01:12:29.082Z,53.48
2022-09-07T01:15:44.879Z,53.37
2022-09-07T01:19:13.921Z,53.37
2022-09-07T01:22:18.933Z,53.30
2022-09-07T01:25:44.416Z,53.43
2022-09-07T01:28:54.442Z,53.26
2022-09-07T01:32:27.629Z,53.27
2022-09-07T01:35:55.293Z,53.12
2022-09-07T01:39:01.404Z,53.20
2022-09-07T01:42:12.965Z,53.17
2022-09-07T01:45:19.715Z,53.28
2022-09-07T01:48:23.139Z,53.44
2022-09-07T01:51:31.772Z,53.51
2022-09-07T01:54:40.450Z,53.47
2022-09-07T01:58:24.838Z,53.73
2022-09-07T02:01:44.112Z,53.62
2022-09-07T02:04:57.988Z,53.64
2022-09-07T02:08:06.782Z,53.62
2022-09-07T02:11:13.563Z,53.96
2022-09-07T02:14:24.787Z,53.94
2022-09-07T02:17:38.610Z,53.86
2022-09-07T02:20:45.071Z,54.08
2022-09-07T02:23:57.926Z,54.13
2022-09-07T02:27:09.035Z,54.23
2022-09-07T02:30:11.778Z,54.16
2022-09-07T02:33:13.878Z,54.12
2022-09-07T02:36:20.150Z,54.03
2022-09-07T02:39:22.268Z,54.02
2022-09-07T02:42:24.664Z,54.01
2022-09-07T02:45:33.041Z,54.09
2022-09-07T02:49:08.255Z,54.01
2022-09-07T02:52:39.640Z,53.99
2022-09-07T02:56:06.308Z,54.01
2022-09-07T02:59:32.967Z,54.04
2022-09-07T03:03:00.365Z,54.08
2022-09-07T03:06:07.735Z,54.09
2022-09-07T03:09:25.296Z,54.21
2022-09-07T03:12:39.759Z,54.15
2022-09-07T03:15:41.833Z,54.26
2022-09-07T03:18:44.661Z,54.27
2022-09-07T03:21:47.029Z,54.20
2022-09-07T03:24:49.135Z,54.23
2022-09-07T03:27:51.337Z,54.32
2022-09-07T03:30:53.428Z,54.21
2022-09-07T03:33:55.564Z,54.20
2022-09-07T03:36:57.730Z,54.25
2022-09-07T03:39:59.779Z,54.30
2022-09-07T03:43:02.141Z,54.44
2022-09-07T03:46:06.469Z,54.31
2022-09-07T03:49:08.612Z,54.48
2022-09-07T03:52:10.957Z,54.49
2022-09-07T03:55:13.240Z,54.47
2022-09-07T03:58:15.291Z,54.54
2022-09-07T04:01:21.205Z,54.45
2022-09-07T04:04:23.335Z,54.49
2022-09-07T04:07:25.403Z,54.46
2022-09-07T04:10:27.766Z,54.37
2022-09-07T04:13:30.972Z,54.52
2022-09-07T04:16:33.181Z,54.53
2022-09-07T04:19:35.367Z,54.42
2022-09-07T04:22:37.404Z,54.52
2022-09-07T04:25:47.034Z,54.56
2022-09-07T04:28:49.434Z,54.54
2022-09-07T04:31:51.481Z,54.55
2022-09-07T04:34:54.412Z,54.62
2022-09-07T04:37:56.449Z,54.51
2022-09-07T04:41:08.275Z,54.51
2022-09-07T04:44:14.794Z,54.35
2022-09-07T04:47:18.890Z,54.48
2022-09-07T04:50:20.985Z,54.61
2022-09-07T04:53:23.052Z,54.66
2022-09-07T04:56:25.688Z,54.62
2022-09-07T04:59:27.864Z,54.49
2022-09-07T05:02:29.946Z,54.45
2022-09-07T05:05:32.059Z,54.47
2022-09-07T05:08:39.607Z,54.56
2022-09-07T05:11:41.944Z,54.61
2022-09-07T05:14:44.015Z,54.65
2022-09-07T05:17:46.116Z,54.53
2022-09-07T05:20:48.198Z,54.63
2022-09-07T05:23:52.359Z,54.57
2022-09-07T05:26:54.564Z,54.60
2022-09-07T05:33:01.997Z,54.71
2022-09-07T05:36:06.131Z,54.68
2022-09-07T05:39:09.154Z,54.75
2022-09-07T05:42:11.243Z,54.78
2022-09-07T05:45:13.330Z,54.74
2022-09-07T05:48:15.459Z,54.88
2022-09-07T05:51:17.541Z,54.94
2022-09-07T05:54:19.629Z,57.10
2022-09-07T05:57:21.783Z,57.88
2022-09-07T06:00:24.196Z,58.29
2022-09-07T06:03:26.553Z,58.13
2022-09-07T06:06:29.434Z,58.70
2022-09-07T06:09:31.552Z,59.44
2022-09-07T06:12:33.920Z,59.35
2022-09-07T06:15:36.087Z,59.49
2022-09-07T06:18:41.085Z,58.64
2022-09-07T06:21:43.491Z,59.01
2022-09-07T06:24:45.577Z,58.97
2022-09-07T06:27:49.234Z,59.06
2022-09-07T06:30:51.317Z,59.34
2022-09-07T06:33:55.598Z,58.96
2022-09-07T06:36:57.678Z,58.62
2022-09-07T06:39:59.829Z,58.45
2022-09-07T06:43:01.911Z,58.54
2022-09-07T06:49:27.242Z,58.80
2022-09-07T06:52:29.572Z,58.75
2022-09-07T06:55:31.715Z,59.18
2022-09-07T06:58:35.511Z,59.14
2022-09-07T07:01:39.107Z,59.89
2022-09-07T07:04:41.532Z,60.23
2022-09-07T07:07:46.818Z,60.05
2022-09-07T07:10:49.432Z,59.59
2022-09-07T07:13:51.486Z,59.45
2022-09-07T07:16:53.668Z,59.61
2022-09-07T07:19:55.704Z,59.48
2022-09-07T07:22:57.735Z,58.82
2022-09-07T07:26:14.146Z,58.99
2022-09-07T07:29:18.708Z,59.28
2022-09-07T07:32:21.615Z,59.74
2022-09-07T07:35:23.878Z,59.12
2022-09-07T07:41:57.507Z,59.07
2022-09-07T07:48:29.300Z,58.81
2022-09-07T07:51:31.775Z,58.70
2022-09-07T07:54:53.382Z,58.65
2022-09-07T07:57:55.363Z,58.57
2022-09-07T08:01:04.051Z,58.25
2022-09-07T08:04:06.092Z,58.16
2022-09-07T08:07:11.850Z,57.64
2022-09-07T08:10:13.996Z,57.57
2022-09-07T08:13:17.085Z,57.48
2022-09-07T08:16:19.426Z,57.41
2022-09-07T08:19:21.670Z,57.06
2022-09-07T08:22:23.660Z,56.81
2022-09-07T08:25:25.684Z,56.84
2022-09-07T08:28:29.837Z,56.83
2022-09-07T08:31:31.919Z,56.74
2022-09-07T08:34:36.346Z,56.25
2022-09-07T08:37:38.393Z,56.19
2022-09-07T08:40:40.778Z,55.85
2022-09-07T08:43:49.231Z,55.75
2022-09-07T08:47:21.639Z,55.95
2022-09-07T08:50:39.059Z,55.55
2022-09-07T08:53:48.496Z,55.20
2022-09-07T09:00:18.098Z,55.33
2022-09-07T09:03:32.461Z,55.36
2022-09-07T09:07:05.230Z,55.24
2022-09-07T09:10:19.377Z,55.10
2022-09-07T09:13:56.822Z,55.07
2022-09-07T09:17:04.169Z,54.81
2022-09-07T09:20:15.393Z,54.59
2022-09-07T09:23:19.764Z,54.39
2022-09-07T09:26:24.763Z,54.52
2022-09-07T09:29:26.911Z,54.50
2022-09-07T09:32:41.498Z,54.55
2022-09-07T09:35:45.942Z,54.26
2022-09-07T09:38:48.073Z,54.25
2022-09-07T09:41:50.142Z,54.41
2022-09-07T09:44:52.734Z,54.17
2022-09-07T09:47:55.059Z,53.42
2022-09-07T09:54:42.163Z,53.30
2022-09-07T10:01:30.987Z,53.17
2022-09-07T10:04:35.221Z,52.75
2022-09-07T10:07:37.274Z,52.84
2022-09-07T10:10:54.239Z,52.56
2022-09-07T10:13:57.852Z,52.04
2022-09-07T10:17:02.039Z,52.65
2022-09-07T10:20:16.333Z,53.10
2022-09-07T10:23:23.560Z,51.66
2022-09-07T10:26:34.355Z,52.09
2022-09-07T10:29:36.572Z,52.23
2022-09-07T10:33:03.228Z,52.43
2022-09-07T10:36:30.063Z,51.22
2022-09-07T10:39:42.064Z,51.31
2022-09-07T10:43:22.241Z,52.09
2022-09-07T10:47:03.164Z,53.23
2022-09-07T10:50:24.905Z,52.20
2022-09-07T10:53:44.911Z,49.55
2022-09-07T10:57:29.194Z,48.67
2022-09-07T11:00:51.183Z,49.63
2022-09-07T11:04:22.642Z,50.59
2022-09-07T11:07:36.982Z,51.09
2022-09-07T11:11:11.252Z,48.62
2022-09-07T11:14:19.384Z,45.33
2022-09-07T11:17:25.381Z,48.02
2022-09-07T11:20:37.565Z,46.80
2022-09-07T11:23:47.004Z,47.96
2022-09-07T11:26:53.963Z,49.30
2022-09-07T11:30:04.212Z,46.14
2022-09-07T11:33:20.459Z,48.22
2022-09-07T11:36:24.890Z,47.52
2022-09-07T11:39:30.579Z,46.46
2022-09-07T11:42:59.383Z,45.94
2022-09-07T11:46:05.732Z,44.93
2022-09-07T11:49:25.914Z,43.83
2022-09-07T11:52:39.725Z,43.35
2022-09-07T11:55:46.110Z,44.30
2022-09-07T11:58:59.805Z,44.64
2022-09-07T12:02:58.085Z,46.24
2022-09-07T12:06:38.188Z,45.91
2022-09-07T12:09:53.077Z,46.74
2022-09-07T12:13:00.671Z,46.90
2022-09-07T12:16:21.366Z,47.09
2022-09-07T12:19:25.558Z,47.79
2022-09-07T12:22:27.671Z,47.47
2022-09-07T12:25:30.952Z,48.06
2022-09-07T12:28:36.336Z,47.44
2022-09-07T12:31:57.763Z,44.94
2022-09-07T12:35:01.129Z,44.62
2022-09-07T12:38:24.887Z,45.05
2022-09-07T12:41:47.370Z,44.64
2022-09-07T12:45:27.848Z,45.99
2022-09-07T12:48:48.034Z,47.11
2022-09-07T12:52:13.974Z,44.10
2022-09-07T12:55:29.722Z,45.23
2022-09-07T12:58:56.121Z,45.86
2022-09-07T13:02:29.788Z,45.48
2022-09-07T13:05:49.268Z,47.52
2022-09-07T13:08:57.451Z,48.14
2022-09-07T13:12:00.962Z,48.08
2022-09-07T13:15:03.395Z,48.89
2022-09-07T13:18:06.063Z,49.10
2022-09-07T13:21:08.048Z,49.31
2022-09-07T13:27:44.555Z,49.65
2022-09-07T13:31:00.715Z,49.76
2022-09-07T13:34:34.385Z,50.19
2022-09-07T13:38:03.354Z,50.43
2022-09-07T13:41:16.073Z,50.66
2022-09-07T13:44:29.961Z,51.09
2022-09-07T13:47:56.424Z,50.77
2022-09-07T13:51:29.191Z,52.01
2022-09-07T13:54:51.821Z,54.32
2022-09-07T13:58:14.212Z,56.44
2022-09-07T14:01:21.376Z,55.36
2022-09-07T14:04:31.291Z,56.82
2022-09-07T14:07:33.507Z,55.59
2022-09-07T14:10:35.941Z,53.87
2022-09-07T14:13:37.934Z,53.35
2022-09-07T14:17:07.063Z,54.33
2022-09-07T14:20:14.458Z,56.03
2022-09-07T14:23:29.952Z,58.94
2022-09-07T14:26:32.158Z,63.13
2022-09-07T14:29:36.153Z,64.14
2022-09-07T14:32:38.415Z,64.58
2022-09-07T14:35:41.367Z,65.37
2022-09-07T14:42:07.598Z,65.14
2022-09-07T14:45:23.089Z,64.73
2022-09-07T14:48:32.251Z,64.19
2022-09-07T14:51:36.807Z,63.94
2022-09-07T14:54:39.655Z,64.37
2022-09-07T14:57:41.747Z,66.17
2022-09-07T15:00:46.552Z,66.90
2022-09-07T15:03:48.820Z,67.15
2022-09-07T15:07:06.087Z,65.98
2022-09-07T15:10:23.539Z,64.13
2022-09-07T15:13:32.942Z,63.93
2022-09-07T15:16:38.669Z,62.48
2022-09-07T15:19:42.936Z,61.17
2022-09-07T15:22:45.850Z,59.62
2022-09-07T15:25:53.604Z,59.48
2022-09-07T15:29:11.806Z,60.31
2022-09-07T15:32:16.695Z,60.11
2022-09-07T15:35:19.980Z,60.09
2022-09-07T15:41:45.182Z,60.31
2022-09-07T15:44:47.225Z,59.96
2022-09-07T15:47:53.294Z,59.86
2022-09-07T15:54:44.083Z,61.22
2022-09-07T15:57:54.512Z,59.44
2022-09-07T16:04:25.875Z,56.13
2022-09-07T16:08:24.896Z,54.56
2022-09-07T16:10:55.794Z,54.50
2022-09-07T16:14:06.575Z,54.52
2022-09-07T16:20:32.237Z,53.56
2022-09-07T16:23:34.595Z,54.01
2022-09-07T16:26:36.728Z,53.71
2022-09-07T16:29:38.942Z,53.96
2022-09-07T16:32:44.849Z,54.71
2022-09-07T16:36:00.749Z,55.16
2022-09-07T16:39:03.394Z,55.21
2022-09-07T16:42:05.983Z,56.15
2022-09-07T16:48:35.822Z,56.93
2022-09-07T16:51:39.716Z,58.17
2022-09-07T16:54:41.925Z,58.85
2022-09-07T17:01:07.197Z,60.32
2022-09-07T17:04:11.205Z,61.51
2022-09-07T17:07:13.457Z,61.48
2022-09-07T17:10:15.607Z,60.78
2022-09-07T17:13:18.043Z,60.86
2022-09-07T17:16:25.892Z,61.84
2022-09-07T17:19:29.406Z,62.29
2022-09-07T17:22:31.880Z,61.75
2022-09-07T17:25:33.912Z,61.57
2022-09-07T17:28:36.830Z,61.69
2022-09-07T17:35:01.472Z,62.65
2022-09-07T17:39:14.299Z,61.69
2022-09-07T17:41:28.340Z,61.41
2022-09-07T17:44:37.667Z,61.07
2022-09-07T17:47:40.301Z,60.29
2022-09-07T17:50:42.586Z,60.49
2022-09-07T17:53:45.704Z,60.64
2022-09-07T17:56:47.757Z,60.60
2022-09-07T18:03:12.817Z,58.93
2022-09-07T18:06:16.109Z,58.80
2022-09-07T18:09:19.491Z,58.84
2022-09-07T18:12:22.524Z,58.41
2022-09-07T18:15:24.721Z,58.22
2022-09-07T18:18:27.875Z,58.20
2022-09-07T18:21:32.593Z,57.93
2022-09-07T18:24:36.989Z,57.76
2022-09-07T18:27:39.875Z,57.34
2022-09-07T18:30:42.728Z,57.35
2022-09-07T18:33:45.008Z,57.20
2022-09-07T18:36:47.076Z,56.81
2022-09-07T18:39:49.383Z,56.78
2022-09-07T18:42:52.604Z,56.62
2022-09-07T18:46:01.732Z,56.45
2022-09-07T18:49:03.833Z,56.70
2022-09-07T18:55:27.910Z,56.84
2022-09-07T18:58:31.341Z,57.08
2022-09-07T19:01:33.427Z,56.77
2022-09-07T19:07:59.393Z,57.03
2022-09-07T19:11:08.132Z,57.18
2022-09-07T19:14:11.193Z,57.22
2022-09-07T19:17:13.326Z,57.19
2022-09-07T19:20:15.366Z,57.06
2022-09-07T19:23:17.397Z,57.00
2022-09-07T19:26:19.983Z,56.87
2022-09-07T19:29:23.338Z,56.98
2022-09-07T19:32:25.532Z,57.13
2022-09-07T19:35:28.636Z,57.03
2022-09-07T19:38:31.190Z,56.77
2022-09-07T19:41:34.714Z,56.77
2022-09-07T19:44:36.722Z,56.70
2022-09-07T19:47:38.729Z,56.74
2022-09-07T19:50:41.524Z,56.70
2022-09-07T19:53:45.792Z,56.27
2022-09-07T19:56:47.828Z,56.29
2022-09-07T19:59:52.708Z,56.41
2022-09-07T20:02:54.785Z,56.41
2022-09-07T20:05:56.785Z,56.42
2022-09-07T20:09:01.284Z,56.29
2022-09-07T20:12:03.814Z,56.19
2022-09-07T20:15:06.300Z,56.31
2022-09-07T20:18:08.459Z,56.33
2022-09-07T20:21:13.133Z,56.39
2022-09-07T20:24:15.239Z,56.36
2022-09-07T20:27:17.260Z,56.37
2022-09-07T20:30:19.340Z,56.39
2022-09-07T20:33:21.800Z,56.37
2022-09-07T20:36:23.845Z,56.42
2022-09-07T20:39:26.056Z,56.43
2022-09-07T20:42:28.621Z,56.46
2022-09-07T20:45:34.928Z,56.43
2022-09-07T20:48:38.151Z,56.53
2022-09-07T20:51:40.248Z,56.36
2022-09-07T20:54:42.311Z,56.29
2022-09-07T20:57:44.367Z,56.39
2022-09-07T21:00:51.540Z,56.44
2022-09-07T21:03:57.146Z,56.59
2022-09-07T21:06:59.356Z,56.41
2022-09-07T21:10:04.690Z,56.59
2022-09-07T21:13:09.067Z,56.40
2022-09-07T21:16:16.404Z,56.44
2022-09-07T21:19:18.630Z,56.53
2022-09-07T21:22:20.817Z,56.11
2022-09-07T21:25:22.926Z,56.00
2022-09-07T21:28:25.954Z,56.39
2022-09-07T21:31:29.973Z,56.45
2022-09-07T21:34:32.131Z,56.91
2022-09-07T21:37:34.200Z,56.78
2022-09-07T21:40:41.193Z,56.92
2022-09-07T21:43:43.537Z,57.03
2022-09-07T21:46:45.849Z,57.25
2022-09-07T21:49:47.968Z,57.19
2022-09-07T21:52:50.154Z,57.37
2022-09-07T21:55:59.695Z,57.25
2022-09-07T21:59:02.750Z,57.42
2022-09-07T22:02:05.047Z,57.62
2022-09-07T22:05:07.907Z,57.89
2022-09-07T22:08:10.127Z,58.00
2022-09-07T22:11:18.516Z,58.06
2022-09-07T22:14:21.463Z,58.08
2022-09-07T22:17:23.519Z,57.93
2022-09-07T22:20:25.608Z,57.93
2022-09-07T22:23:30.818Z,58.02
2022-09-07T22:26:39.642Z,57.97
2022-09-07T22:29:41.657Z,58.03
2022-09-07T22:32:50.831Z,58.16
2022-09-07T22:35:52.849Z,58.15
2022-09-07T22:38:57.989Z,58.03
2022-09-07T22:42:00.067Z,58.22
2022-09-07T22:45:02.102Z,58.10
2022-09-07T22:48:05.922Z,58.27
2022-09-07T22:51:08.901Z,58.31
2022-09-07T22:54:10.958Z,58.33
2022-09-07T22:57:12.996Z,58.47
2022-09-07T23:00:15.309Z,58.40
2022-09-07T23:03:20.428Z,58.46
2022-09-07T23:06:28.088Z,58.61
2022-09-07T23:09:30.204Z,58.76
2022-09-07T23:12:32.417Z,58.92
2022-09-07T23:15:36.543Z,58.97
2022-09-07T23:18:40.672Z,58.86
2022-09-07T23:21:43.451Z,58.85
2022-09-07T23:24:45.542Z,58.90
2022-09-07T23:27:47.733Z,58.92
2022-09-07T23:30:51.447Z,58.95
2022-09-07T23:33:53.561Z,58.96
2022-09-07T23:36:55.725Z,59.06
2022-09-07T23:39:57.945Z,58.99
2022-09-07T23:43:00.745Z,58.90
2022-09-07T23:46:02.864Z,59.06
2022-09-07T23:49:05.312Z,58.99
2022-09-07T23:52:07.360Z,59.06
2022-09-07T23:55:11.067Z,59.12
2022-09-07T23:58:13.207Z,59.13
